Time;durP1;ratioP1;P1;durP2;ratioP2;P2;SDS_P1;SDS_P2;PMS_P1;PMS_P2;Temp;Humidity;BMP_temperature;BMP_pressure;BME280_temperature;BME280_humidity;BME280_pressure;Samples;Min_cycle;Max_cycle;Signal;HPM_P1;HPM_P2
2022/05/04 05:17:29;;;;;;;3.10;0.90;;;16.60;53.20;;;;;;4937473;29;20056;-72
2022/05/04 05:19:55;;;;;;;4.35;0.77;;;16.70;53.10;;;;;;4938154;29;20138;-72
2022/05/04 05:22:20;;;;;;;2.65;0.47;;;16.80;53.10;;;;;;4938609;29;20055;-72
2022/05/04 05:24:46;;;;;;;3.60;0.68;;;16.90;53.10;;;;;;4936640;29;20139;-73
2022/05/04 05:27:14;;;;;;;2.33;0.98;;;16.90;53.10;;;;;;4933805;29;20040;-73
2022/05/04 05:29:39;;;;;;;7.68;1.27;;;17.00;53.10;;;;;;4929936;29;20064;-73
2022/05/04 05:32:05;;;;;;;12.00;1.50;;;17.00;52.40;;;;;;4937689;29;20110;-73
2022/05/04 05:34:33;;;;;;;6.05;0.88;;;16.60;52.60;;;;;;4938193;29;20062;-76
2022/05/04 05:36:59;;;;;;;4.25;0.95;;;16.80;54.10;;;;;;4937443;29;20070;-74
2022/05/04 05:39:25;;;;;;;5.03;1.27;;;17.00;54.10;;;;;;4918411;29;20476;-76
2022/05/04 05:41:51;;;;;;;6.97;1.55;;;17.10;53.60;;;;;;4923985;29;20051;-73
2022/05/04 05:44:17;;;;;;;29.90;2.83;;;17.30;54.10;;;;;;4937845;29;20066;-74
2022/05/04 05:46:43;;;;;;;22.50;4.13;;;17.50;53.50;;;;;;4936230;29;20055;-72
2022/05/04 05:49:09;;;;;;;24.27;2.47;;;17.60;53.70;;;;;;4927019;29;20118;-75
2022/05/04 05:51:35;;;;;;;26.67;2.67;;;17.80;53.70;;;;;;4937429;29;20058;-75
2022/05/04 05:54:00;;;;;;;24.67;3.63;;;17.90;53.80;;;;;;4937792;29;20098;-73
2022/05/04 05:56:26;;;;;;;21.42;3.25;;;18.00;53.90;;;;;;4937668;29;20456;-76
2022/05/04 05:58:52;;;;;;;22.88;2.80;;;18.10;54.20;;;;;;4935754;29;20047;-80
2022/05/04 06:01:18;;;;;;;17.80;2.00;;;18.10;54.40;;;;;;4934723;29;20048;-81
2022/05/04 06:03:44;;;;;;;24.58;3.15;;;18.10;54.50;;;;;;4918654;29;20059;-74
2022/05/04 06:06:09;;;;;;;18.25;2.85;;;18.10;54.60;;;;;;4918922;29;20076;-76
2022/05/04 06:08:35;;;;;;;23.92;2.38;;;18.10;54.70;;;;;;4917674;29;20380;-76
2022/05/04 06:11:01;;;;;;;17.23;3.58;;;18.10;54.60;;;;;;4918619;29;20055;-76
2022/05/04 06:13:27;;;;;;;17.48;2.85;;;18.10;54.80;;;;;;4933770;29;20051;-75
2022/05/04 06:15:53;;;;;;;20.33;2.85;;;18.10;55.10;;;;;;4936814;29;20052;-77
2022/05/04 06:18:19;;;;;;;26.20;3.38;;;18.00;55.20;;;;;;4937860;29;20040;-75
2022/05/04 06:20:44;;;;;;;26.42;3.13;;;18.00;55.30;;;;;;4937363;29;20127;-81
2022/05/04 06:23:10;;;;;;;20.13;2.38;;;18.00;55.50;;;;;;4921626;29;20052;-77
2022/05/04 06:25:36;;;;;;;30.45;3.25;;;17.90;55.90;;;;;;4918307;29;20138;-77
2022/05/04 06:28:03;;;;;;;33.50;4.35;;;17.90;56.30;;;;;;4918306;29;20106;-78
2022/05/04 06:35:58;;;;;;;20.50;2.40;;;17.80;57.10;;;;;;4936480;29;20134;-77
2022/05/04 06:38:27;;;;;;;17.45;3.08;;;17.90;56.10;;;;;;4940109;29;20123;-78
2022/05/04 06:40:54;;;;;;;16.95;3.30;;;17.90;55.10;;;;;;4945097;29;20099;-78
2022/05/04 06:43:20;;;;;;;14.05;2.85;;;17.90;53.90;;;;;;4939951;29;20107;-78
2022/05/04 06:45:46;;;;;;;16.15;2.83;;;17.80;53.50;;;;;;4940266;29;20479;-80
2022/05/04 06:48:12;;;;;;;21.70;3.55;;;17.90;53.60;;;;;;4939557;29;20039;-84
2022/05/04 06:50:38;;;;;;;21.00;3.10;;;17.90;53.80;;;;;;4939564;29;20087;-75
2022/05/04 06:53:04;;;;;;;20.92;3.17;;;17.90;53.70;;;;;;4914904;29;20488;-76
2022/05/04 06:55:29;;;;;;;30.75;3.38;;;17.80;52.30;;;;;;4921270;29;20085;-76
2022/05/04 06:57:55;;;;;;;17.50;2.92;;;17.80;53.60;;;;;;4936145;29;20051;-76
2022/05/04 07:00:21;;;;;;;22.70;2.70;;;17.80;53.80;;;;;;4939901;29;20055;-75
2022/05/04 07:02:47;;;;;;;18.88;2.47;;;17.80;54.20;;;;;;4939621;29;20048;-75
2022/05/04 07:05:12;;;;;;;22.38;3.28;;;17.80;54.00;;;;;;4940456;29;20062;-76
2022/05/04 07:07:38;;;;;;;22.10;3.40;;;17.80;54.10;;;;;;4940537;29;20051;-76
2022/05/04 07:10:04;;;;;;;21.83;3.88;;;17.80;54.30;;;;;;4940562;29;20054;-76
2022/05/04 07:12:30;;;;;;;22.67;3.05;;;17.80;54.60;;;;;;4940612;29;20066;-77
2022/05/04 07:14:56;;;;;;;17.38;2.78;;;17.80;54.60;;;;;;4940069;29;20051;-75
2022/05/04 07:17:26;;;;;;;23.98;3.13;;;17.80;54.80;;;;;;4940214;29;20059;-74
2022/05/04 07:19:52;;;;;;;22.40;3.33;;;17.90;54.00;;;;;;4940294;29;20051;-74
2022/05/04 07:22:18;;;;;;;27.75;3.67;;;17.90;53.80;;;;;;4940300;29;20083;-75
2022/05/04 07:24:44;;;;;;;25.83;3.50;;;17.90;53.90;;;;;;4940425;29;20114;-74
2022/05/04 07:27:11;;;;;;;42.45;4.70;;;17.90;53.90;;;;;;4939962;29;20048;-74
2022/05/04 07:29:36;;;;;;;43.30;5.38;;;18.00;53.90;;;;;;4940472;29;20051;-74
2022/05/04 07:32:03;;;;;;;33.70;4.55;;;18.10;53.50;;;;;;4940319;29;20432;-74
2022/05/04 07:34:30;;;;;;;24.45;4.57;;;18.10;53.30;;;;;;4936892;29;20062;-74
2022/05/04 07:36:57;;;;;;;26.35;3.30;;;18.20;53.30;;;;;;4939302;29;20130;-74
2022/05/04 07:42:24;;;;;;;23.80;3.80;;;18.30;53.00;;;;;;4909091;29;20127;-74
2022/05/04 07:44:57;;;;;;;29.85;2.95;;;18.40;53.10;;;;;;4923191;29;20048;-74
2022/05/04 07:47:22;;;;;;;20.40;3.00;;;18.40;52.80;;;;;;4926935;29;20368;-73
2022/05/04 07:49:48;;;;;;;30.05;3.97;;;18.50;52.60;;;;;;4939786;29;20055;-74
2022/05/04 07:52:15;;;;;;;17.65;3.03;;;18.40;51.80;;;;;;4939848;29;20051;-74
2022/05/04 07:54:40;;;;;;;20.63;2.60;;;18.50;52.30;;;;;;4939802;29;20123;-73
2022/05/04 07:57:08;;;;;;;14.50;2.55;;;18.50;52.30;;;;;;4939555;29;20397;-74
2022/05/04 07:59:34;;;;;;;24.48;2.50;;;18.50;52.20;;;;;;4939042;29;20131;-75
2022/05/04 08:04:49;;;;;;;15.18;2.72;;;18.50;51.90;;;;;;4938068;29;20056;-77
2022/05/04 08:07:16;;;;;;;17.08;2.63;;;18.40;51.90;;;;;;4939723;29;20055;-73
2022/05/04 08:09:42;;;;;;;13.82;2.92;;;18.40;52.30;;;;;;4939401;29;20051;-75
2022/05/04 08:12:11;;;;;;;29.63;3.80;;;18.30;51.70;;;;;;4939253;29;20441;-75
2022/05/04 08:14:37;;;;;;;23.45;2.97;;;18.40;52.80;;;;;;4938785;29;20140;-76
2022/05/04 08:17:03;;;;;;;19.83;2.90;;;18.50;53.00;;;;;;4939379;29;20139;-75
2022/05/04 08:19:28;;;;;;;21.25;3.00;;;18.60;53.00;;;;;;4938435;29;20508;-75
2022/05/04 08:21:55;;;;;;;15.52;2.45;;;18.60;52.70;;;;;;4934743;29;20051;-75
2022/05/04 08:24:21;;;;;;;13.07;1.92;;;18.00;48.40;;;;;;4938755;29;20083;-75
2022/05/04 08:26:47;;;;;;;15.50;2.08;;;18.00;52.30;;;;;;4939069;29;20087;-76
2022/05/04 08:29:13;;;;;;;19.02;3.42;;;18.10;52.80;;;;;;4939003;29;20102;-75
2022/05/04 08:31:39;;;;;;;21.55;3.72;;;18.20;52.80;;;;;;4938504;29;20051;-75
2022/05/04 08:34:04;;;;;;;14.85;3.13;;;18.30;52.80;;;;;;4939144;29;20096;-78
2022/05/04 08:36:30;;;;;;;11.30;2.50;;;18.40;52.80;;;;;;4939409;29;20472;-74
2022/05/04 08:38:56;;;;;;;15.10;2.25;;;18.50;52.60;;;;;;4939658;29;20059;-74
2022/05/04 08:41:25;;;;;;;11.65;1.60;;;18.50;52.40;;;;;;4938225;29;20138;-74
2022/05/04 08:43:51;;;;;;;11.98;1.65;;;18.50;52.30;;;;;;4919998;29;20067;-75
2022/05/04 08:46:20;;;;;;;16.77;2.60;;;18.40;52.20;;;;;;4920043;29;20052;-73
2022/05/04 08:48:47;;;;;;;12.43;2.00;;;18.40;52.20;;;;;;4920010;29;20075;-74
2022/05/04 08:51:13;;;;;;;11.85;2.03;;;18.40;52.20;;;;;;4934978;29;20048;-76
2022/05/04 08:53:42;;;;;;;15.07;2.38;;;18.40;52.30;;;;;;4936771;29;20130;-73
2022/05/04 08:56:09;;;;;;;10.63;1.42;;;18.30;52.30;;;;;;4938387;29;20055;-74
2022/05/04 08:58:39;;;;;;;11.55;1.77;;;18.30;52.30;;;;;;4937952;29;20048;-73
2022/05/04 09:01:05;;;;;;;12.23;2.05;;;18.30;52.40;;;;;;4938945;29;20417;-73
2022/05/04 09:03:32;;;;;;;10.38;1.90;;;18.30;52.40;;;;;;4938541;29;20055;-74
2022/05/04 09:05:58;;;;;;;6.95;1.45;;;18.20;52.40;;;;;;4938338;29;20048;-74
2022/05/04 09:08:25;;;;;;;9.25;1.42;;;18.10;52.40;;;;;;4938578;29;20130;-73
2022/05/04 09:10:50;;;;;;;8.50;1.40;;;18.10;52.40;;;;;;4938759;29;20388;-74
2022/05/04 09:13:20;;;;;;;8.63;1.30;;;18.10;52.50;;;;;;4938208;29;20047;-74
2022/05/04 09:15:46;;;;;;;6.95;1.40;;;18.10;52.50;;;;;;4938084;29;20134;-76
2022/05/04 09:18:16;;;;;;;8.10;1.42;;;18.00;52.60;;;;;;4937534;29;20445;-73
2022/05/04 09:20:49;;;;;;;7.15;1.48;;;18.00;52.60;;;;;;4938941;29;20047;-74
2022/05/04 09:23:19;;;;;;;6.90;1.02;;;18.00;52.60;;;;;;4936976;29;20074;-73
2022/05/04 09:25:48;;;;;;;6.43;1.38;;;18.00;52.80;;;;;;4937987;29;20129;-73
2022/05/04 09:28:14;;;;;;;9.57;1.20;;;17.90;52.80;;;;;;4937454;29;20064;-74
2022/05/04 09:30:51;;;;;;;4.72;1.00;;;17.90;52.80;;;;;;4938293;29;20365;-73
2022/05/04 09:33:18;;;;;;;5.03;1.23;;;17.90;52.80;;;;;;4937776;29;20124;-74
2022/05/04 09:35:44;;;;;;;7.18;1.42;;;17.80;52.90;;;;;;4937805;29;20051;-74
2022/05/04 09:46:55;;;;;;;3.58;0.80;;;17.70;53.30;;;;;;4919179;29;20052;-74
2022/05/04 09:49:23;;;;;;;2.75;1.10;;;17.70;53.50;;;;;;4926140;29;20479;-73
2022/05/04 09:51:53;;;;;;;4.78;0.90;;;17.60;53.70;;;;;;4938018;29;20127;-75
2022/05/04 09:54:20;;;;;;;6.57;1.30;;;17.60;53.90;;;;;;4937543;29;20052;-75
2022/05/04 09:56:55;;;;;;;4.97;1.13;;;17.60;54.10;;;;;;4937771;29;20357;-73
2022/05/04 09:59:23;;;;;;;3.55;1.23;;;17.60;54.30;;;;;;4937750;29;20118;-74
2022/05/04 10:01:51;;;;;;;4.15;1.00;;;17.60;54.40;;;;;;4937529;29;20123;-73
2022/05/04 10:04:26;;;;;;;3.47;1.05;;;17.60;54.50;;;;;;4937990;29;20154;-73
2022/05/04 10:06:53;;;;;;;6.80;1.20;;;17.60;54.50;;;;;;4937960;29;20115;-73
2022/05/04 10:09:21;;;;;;;4.22;1.17;;;17.60;54.60;;;;;;4937686;29;20054;-76
2022/05/04 10:11:47;;;;;;;6.10;1.45;;;17.60;54.60;;;;;;4941315;29;20044;-76
2022/05/04 10:14:15;;;;;;;8.88;1.70;;;17.50;54.40;;;;;;4938435;29;20044;-74
2022/05/04 10:17:07;;;;;;;11.52;1.58;;;17.50;54.40;;;;;;4941786;29;20377;-74
2022/05/04 10:19:55;;;;;;;13.15;1.73;;;17.50;54.40;;;;;;4930527;29;20118;-72
2022/05/04 10:22:29;;;;;;;18.70;2.58;;;17.50;54.20;;;;;;4941205;29;20067;-72
2022/05/04 10:24:58;;;;;;;21.38;2.80;;;17.60;54.50;;;;;;4939547;29;20055;-78
2022/05/04 10:27:28;;;;;;;14.32;2.88;;;17.60;54.70;;;;;;4940664;29;20405;-75
2022/05/04 10:30:38;;;;;;;19.20;2.55;;;17.60;54.80;;;;;;4941374;29;20096;-75
2022/05/04 10:33:05;;;;;;;26.75;3.90;;;17.60;55.10;;;;;;4939416;29;20063;-77
2022/05/04 10:35:42;;;;;;;26.38;3.35;;;17.60;55.40;;;;;;4941055;29;20044;-78
2022/05/04 10:38:15;;;;;;;22.23;3.53;;;17.60;55.80;;;;;;4940701;29;20075;-79
2022/05/04 10:40:57;;;;;;;22.90;3.80;;;17.60;55.30;;;;;;4941218;29;20044;-79
2022/05/04 10:43:43;;;;;;;23.83;4.22;;;17.60;54.90;;;;;;4941046;29;20132;-79
2022/05/04 10:46:21;;;;;;;29.15;2.97;;;17.60;54.30;;;;;;4940349;29;20051;-78
2022/05/04 10:48:58;;;;;;;21.73;3.55;;;17.60;54.10;;;;;;4940907;29;20421;-78
2022/05/04 10:51:26;;;;;;;14.70;2.95;;;17.60;53.80;;;;;;4940119;29;20376;-77
2022/05/04 10:53:57;;;;;;;24.88;3.85;;;17.60;53.40;;;;;;4940128;29;20063;-74
2022/05/04 10:56:27;;;;;;;21.23;3.90;;;17.60;53.50;;;;;;4940704;29;20118;-75
2022/05/04 10:58:55;;;;;;;23.20;3.58;;;17.60;54.00;;;;;;4940257;29;20052;-74
2022/05/04 11:01:33;;;;;;;24.30;4.05;;;17.50;53.00;;;;;;4940173;29;20055;-75
2022/05/04 11:04:11;;;;;;;27.20;4.28;;;17.60;53.90;;;;;;4940109;29;20460;-73
2022/05/04 11:06:52;;;;;;;28.88;3.70;;;17.60;54.00;;;;;;4940398;29;20047;-75
2022/05/04 11:09:25;;;;;;;22.80;4.05;;;17.80;54.00;;;;;;4940378;29;20055;-75
2022/05/04 11:11:53;;;;;;;25.77;3.17;;;17.80;53.80;;;;;;4940518;29;20102;-76
2022/05/04 11:14:22;;;;;;;17.92;3.38;;;18.00;53.90;;;;;;4940957;29;20102;-75
2022/05/04 11:16:53;;;;;;;25.35;3.67;;;18.00;53.80;;;;;;4940402;29;20162;-76
2022/05/04 11:19:22;;;;;;;27.48;4.20;;;18.10;53.90;;;;;;4940303;29;20058;-76
2022/05/04 11:21:48;;;;;;;25.73;3.83;;;18.30;53.80;;;;;;4939782;29;20044;-76
2022/05/04 11:24:16;;;;;;;25.50;3.55;;;18.40;53.80;;;;;;4940563;29;20043;-74
2022/05/04 11:26:48;;;;;;;24.77;4.40;;;18.50;53.70;;;;;;4939516;29;20388;-75
2022/05/04 11:29:16;;;;;;;18.55;4.03;;;18.60;53.80;;;;;;4938792;29;20051;-74
2022/05/04 11:31:57;;;;;;;27.10;4.35;;;18.60;53.80;;;;;;4937616;29;20425;-80
2022/05/04 11:34:40;;;;;;;24.65;4.35;;;18.60;53.70;;;;;;4939310;29;20484;-79
2022/05/04 11:37:11;;;;;;;30.03;4.83;;;18.70;53.80;;;;;;4938550;29;20425;-75
2022/05/04 11:39:38;;;;;;;39.78;5.40;;;18.80;53.80;;;;;;4939937;29;20279;-77
2022/05/04 11:42:07;;;;;;;37.15;6.07;;;18.80;53.80;;;;;;4939720;29;20054;-78
2022/05/04 11:44:33;;;;;;;29.38;5.05;;;18.80;53.90;;;;;;4939272;29;20373;-75
2022/05/04 11:47:01;;;;;;;24.30;4.93;;;18.80;52.70;;;;;;4938739;29;20072;-78
2022/05/04 11:49:29;;;;;;;26.95;4.65;;;18.80;52.10;;;;;;4938601;29;20122;-76
2022/05/04 11:51:57;;;;;;;23.95;4.28;;;18.80;52.00;;;;;;4939561;29;20058;-76
2022/05/04 11:54:22;;;;;;;28.65;4.30;;;18.70;52.00;;;;;;4939603;29;20098;-76
2022/05/04 11:56:48;;;;;;;25.30;4.10;;;18.70;52.10;;;;;;4939515;29;20406;-75
2022/05/04 11:59:14;;;;;;;22.23;3.78;;;18.70;52.30;;;;;;4939624;29;20048;-76
2022/05/04 12:01:40;;;;;;;19.67;3.60;;;18.60;52.40;;;;;;4939695;29;20043;-76
2022/05/04 12:04:09;;;;;;;17.95;3.85;;;18.60;52.60;;;;;;4939344;29;20460;-75
2022/05/04 12:06:35;;;;;;;11.85;2.90;;;18.50;52.70;;;;;;4939489;29;20087;-76
2022/05/04 12:09:03;;;;;;;20.83;4.20;;;18.50;52.80;;;;;;4939055;29;20405;-76
2022/05/04 12:11:30;;;;;;;23.38;3.95;;;18.60;53.00;;;;;;4937796;29;20091;-76
2022/05/04 12:13:59;;;;;;;15.73;3.80;;;18.60;53.10;;;;;;4938405;29;20115;-76
2022/05/04 12:16:25;;;;;;;17.13;3.22;;;18.50;53.10;;;;;;4938800;29;20064;-76
2022/05/04 12:18:52;;;;;;;18.52;3.33;;;18.50;53.10;;;;;;4939134;29;20436;-75
2022/05/04 12:21:20;;;;;;;14.70;3.10;;;18.50;53.10;;;;;;4938789;29;20051;-75
2022/05/04 12:23:48;;;;;;;9.63;2.53;;;18.60;53.20;;;;;;4920256;29;20059;-75
2022/05/04 12:26:15;;;;;;;19.73;4.28;;;18.60;53.30;;;;;;4920113;29;20048;-77
2022/05/04 12:28:43;;;;;;;14.68;2.45;;;18.60;53.40;;;;;;4932093;29;20058;-75
2022/05/04 12:33:56;;;;;;;12.30;2.15;;;18.60;53.50;;;;;;4919030;29;20052;-76
2022/05/04 12:36:25;;;;;;;11.02;2.45;;;18.50;53.40;;;;;;4920071;29;20377;-76
2022/05/04 12:38:53;;;;;;;10.35;2.47;;;18.60;53.50;;;;;;4917560;29;20056;-74
2022/05/04 12:41:21;;;;;;;11.30;2.47;;;18.60;53.60;;;;;;4950236;29;20135;-75
2022/05/04 12:43:49;;;;;;;12.00;2.15;;;18.60;53.60;;;;;;4918623;29;20048;-75
2022/05/04 12:46:17;;;;;;;14.15;3.05;;;18.60;53.70;;;;;;4919629;29;20060;-75
2022/05/04 12:48:45;;;;;;;11.35;2.17;;;18.60;53.80;;;;;;4919677;29;20048;-74
2022/05/04 12:51:14;;;;;;;7.57;1.63;;;18.60;53.80;;;;;;4919679;29;20060;-75
2022/05/04 12:53:40;;;;;;;9.90;2.15;;;18.70;53.90;;;;;;4937120;29;20067;-75
2022/05/04 12:58:53;;;;;;;13.48;3.22;;;18.70;53.30;;;;;;4938871;29;20460;-76
2022/05/04 13:01:24;;;;;;;11.18;2.35;;;18.20;50.80;;;;;;4938366;29;20040;-76
2022/05/04 13:03:50;;;;;;;12.85;2.38;;;18.10;51.40;;;;;;4919276;29;20457;-75
2022/05/04 13:06:18;;;;;;;13.02;2.25;;;17.90;53.30;;;;;;4919634;29;20071;-75
2022/05/04 13:08:45;;;;;;;10.57;2.78;;;17.80;52.10;;;;;;4919279;29;20440;-74
2022/05/04 13:11:12;;;;;;;8.52;2.20;;;17.70;52.30;;;;;;4919424;29;20048;-74
2022/05/04 13:13:38;;;;;;;7.13;2.00;;;17.60;52.60;;;;;;4935934;29;20470;-72
2022/05/04 13:16:04;;;;;;;16.60;2.40;;;17.60;53.30;;;;;;4937133;29;20083;-74
2022/05/04 13:18:30;;;;;;;33.80;3.65;;;17.60;53.40;;;;;;4938127;29;20167;-74
2022/05/04 13:20:55;;;;;;;15.73;2.92;;;17.60;53.30;;;;;;4938530;29;20134;-74
2022/05/04 13:23:21;;;;;;;26.40;3.70;;;17.60;53.30;;;;;;4938059;29;20495;-74
2022/05/04 13:25:47;;;;;;;12.23;2.67;;;17.70;53.90;;;;;;4938331;29;20063;-74
2022/05/04 13:28:12;;;;;;;13.93;2.70;;;17.70;53.70;;;;;;4938409;29;20043;-75
2022/05/04 13:30:38;;;;;;;12.88;2.47;;;17.70;53.80;;;;;;4938061;29;20131;-74
2022/05/04 13:33:04;;;;;;;6.88;2.17;;;17.70;53.80;;;;;;4937622;29;20051;-74
2022/05/04 13:35:30;;;;;;;8.57;2.30;;;17.70;52.10;;;;;;4937883;29;20047;-73
2022/05/04 13:37:56;;;;;;;13.15;2.78;;;17.60;51.00;;;;;;4936937;29;20074;-73
2022/05/04 13:40:22;;;;;;;10.57;2.50;;;17.60;52.00;;;;;;4937846;29;20069;-74
2022/05/04 13:42:48;;;;;;;8.80;2.25;;;17.60;52.40;;;;;;4937826;29;20051;-74
2022/05/04 13:45:14;;;;;;;7.70;2.20;;;17.60;52.70;;;;;;4937448;29;20350;-74
2022/05/04 13:47:40;;;;;;;9.52;1.80;;;17.50;52.70;;;;;;4937885;29;20102;-74
2022/05/04 13:55:46;;;;;;;15.02;3.00;;;17.70;53.50;;;;;;4937963;29;20059;-73
2022/05/04 13:58:14;;;;;;;13.82;2.83;;;17.80;53.00;;;;;;4938655;29;20052;-77
2022/05/04 14:00:40;;;;;;;11.55;2.53;;;17.90;52.80;;;;;;4937863;29;20143;-74
2022/05/04 14:03:06;;;;;;;14.70;2.92;;;18.00;52.50;;;;;;4937401;29;20048;-73
2022/05/04 14:05:32;;;;;;;16.63;3.03;;;18.00;51.90;;;;;;4937501;29;20457;-75
2022/05/04 14:07:57;;;;;;;12.15;2.63;;;18.00;53.80;;;;;;4937728;29;20055;-74
2022/05/04 14:10:24;;;;;;;10.70;2.53;;;18.00;53.40;;;;;;4937868;29;20500;-73
2022/05/04 14:12:50;;;;;;;9.88;2.33;;;18.10;52.70;;;;;;4937261;29;20102;-74
2022/05/04 14:15:15;;;;;;;6.82;2.33;;;18.20;51.60;;;;;;4936848;29;20138;-74
2022/05/04 14:17:41;;;;;;;11.23;2.78;;;18.20;51.20;;;;;;4937703;29;20495;-74
2022/05/04 14:20:07;;;;;;;8.73;2.58;;;18.20;50.10;;;;;;4936842;29;20060;-75
2022/05/04 14:22:33;;;;;;;5.18;2.28;;;18.30;49.40;;;;;;4937399;29;20071;-73
2022/05/04 14:25:02;;;;;;;6.32;1.63;;;18.30;48.70;;;;;;4937628;29;20047;-74
2022/05/04 14:27:28;;;;;;;8.13;2.80;;;18.30;48.40;;;;;;4936899;29;20048;-73
2022/05/04 14:29:54;;;;;;;7.30;2.03;;;18.40;48.40;;;;;;4937192;29;20051;-74
2022/05/04 14:32:19;;;;;;;11.38;2.67;;;18.40;48.30;;;;;;4936533;29;20534;-80
2022/05/04 14:34:45;;;;;;;13.20;2.90;;;18.40;48.40;;;;;;4926594;29;20088;-76
2022/05/04 14:37:11;;;;;;;11.00;2.28;;;18.50;48.50;;;;;;4937664;29;20075;-73
2022/05/04 14:39:37;;;;;;;6.45;2.15;;;18.40;48.80;;;;;;4937591;29;20103;-75
2022/05/04 14:42:04;;;;;;;14.43;2.78;;;18.50;49.20;;;;;;4936253;29;20392;-76
2022/05/04 14:44:30;;;;;;;13.90;2.80;;;18.50;49.30;;;;;;4937267;29;20460;-75
2022/05/04 14:46:56;;;;;;;7.70;1.90;;;18.60;49.60;;;;;;4937311;29;20070;-71
2022/05/04 14:49:21;;;;;;;5.75;1.70;;;18.60;49.80;;;;;;4937052;29;20462;-77
2022/05/04 14:51:47;;;;;;;9.18;2.40;;;18.60;50.10;;;;;;4937564;29;20125;-75
2022/05/04 14:54:13;;;;;;;9.23;2.13;;;18.60;50.80;;;;;;4937378;29;20473;-76
2022/05/04 14:56:38;;;;;;;11.00;2.30;;;18.60;52.40;;;;;;4938143;29;20051;-75
2022/05/04 14:59:04;;;;;;;4.97;1.85;;;18.60;52.80;;;;;;4941559;29;20118;-74
2022/05/04 15:01:30;;;;;;;5.53;1.90;;;18.70;51.90;;;;;;4940676;29;20364;-73
2022/05/04 15:06:40;;;;;;;7.45;1.98;;;18.60;51.90;;;;;;4939915;29;20055;-74
2022/05/04 15:09:06;;;;;;;7.63;2.38;;;18.60;51.10;;;;;;4940530;29;20070;-76
2022/05/04 15:11:32;;;;;;;10.88;3.25;;;18.60;52.30;;;;;;4940943;29;20055;-74
2022/05/04 15:13:57;;;;;;;9.48;2.50;;;18.60;53.00;;;;;;4941059;29;20051;-77
2022/05/04 15:16:24;;;;;;;7.43;2.70;;;18.50;53.20;;;;;;4939125;29;20063;-78
2022/05/04 15:18:55;;;;;;;9.65;2.65;;;18.60;54.70;;;;;;4939260;29;20035;-78
2022/05/04 15:21:21;;;;;;;6.85;2.70;;;18.60;54.40;;;;;;4923319;29;20506;-77
2022/05/04 15:23:46;;;;;;;6.65;2.55;;;18.50;54.30;;;;;;4940696;29;20176;-77
2022/05/04 15:26:12;;;;;;;6.82;2.33;;;18.50;53.50;;;;;;4939048;29;20048;-79
2022/05/04 15:28:38;;;;;;;7.18;2.38;;;18.50;53.10;;;;;;4940311;29;20043;-76
2022/05/04 15:31:04;;;;;;;6.53;2.40;;;18.50;53.00;;;;;;4938951;29;20060;-75
2022/05/04 15:33:31;;;;;;;5.72;2.55;;;18.50;54.00;;;;;;4940023;29;20468;-74
2022/05/04 15:36:00;;;;;;;8.48;2.42;;;18.50;54.70;;;;;;4940815;29;20123;-75
2022/05/04 15:38:25;;;;;;;9.32;2.88;;;18.50;54.50;;;;;;4939903;29;20059;-74
2022/05/04 15:40:51;;;;;;;13.20;3.70;;;18.40;54.60;;;;;;4939909;29;20048;-77
2022/05/04 15:43:17;;;;;;;13.48;3.47;;;18.50;54.80;;;;;;4939973;29;20043;-77
2022/05/04 15:45:50;;;;;;;17.10;3.55;;;18.40;54.80;;;;;;4940127;29;20445;-76
2022/05/04 15:48:15;;;;;;;23.55;4.18;;;18.50;55.30;;;;;;4939860;29;20385;-76
2022/05/04 15:50:45;;;;;;;22.35;3.65;;;18.40;56.10;;;;;;4939247;29;20110;-75
2022/05/04 15:53:11;;;;;;;24.45;4.53;;;18.40;57.10;;;;;;4939699;29;20056;-75
2022/05/04 15:55:43;;;;;;;31.90;5.32;;;18.50;57.40;;;;;;4939765;29;20040;-77
2022/05/04 15:58:11;;;;;;;27.65;3.97;;;18.50;57.90;;;;;;4939437;29;20044;-76
2022/05/04 16:00:37;;;;;;;26.98;4.38;;;18.50;57.90;;;;;;4939534;29;20472;-75
2022/05/04 16:05:51;;;;;;;26.63;4.68;;;18.50;58.00;;;;;;4939465;29;20055;-75
2022/05/04 16:08:22;;;;;;;25.98;4.43;;;18.50;58.20;;;;;;4938565;29;20476;-75
2022/05/04 16:10:48;;;;;;;27.33;4.80;;;18.50;58.50;;;;;;4918360;29;20063;-77
2022/05/04 16:13:14;;;;;;;29.33;4.90;;;18.50;58.70;;;;;;4900209;29;20065;-75
2022/05/04 16:15:40;;;;;;;37.25;6.22;;;18.50;58.90;;;;;;4914964;29;20397;-76
2022/05/04 16:23:37;;;;;;;32.38;4.47;;;18.50;59.10;;;;;;4902819;29;20520;-76
2022/05/04 16:26:03;;;;;;;28.25;4.68;;;18.50;59.20;;;;;;4918285;29;20147;-75
2022/05/04 16:28:28;;;;;;;24.27;4.82;;;18.50;59.30;;;;;;4918410;29;20052;-75
2022/05/04 16:30:56;;;;;;;29.20;4.97;;;18.60;59.40;;;;;;4918164;29;20380;-72
2022/05/04 16:33:24;;;;;;;32.30;4.88;;;18.60;59.40;;;;;;4899057;29;20044;-73
2022/05/04 16:35:53;;;;;;;34.85;5.00;;;18.50;59.30;;;;;;4899686;29;20462;-73
2022/05/04 16:38:19;;;;;;;28.83;4.75;;;18.60;59.20;;;;;;4915139;29;20083;-75
2022/05/04 16:40:45;;;;;;;35.00;5.10;;;18.60;59.30;;;;;;4900815;29;20087;-79
2022/05/04 16:43:12;;;;;;;31.33;5.63;;;18.60;59.20;;;;;;4936744;29;20529;-74
2022/05/04 16:45:39;;;;;;;26.83;4.30;;;18.60;59.80;;;;;;4938105;29;20051;-74
2022/05/04 16:48:05;;;;;;;30.42;5.03;;;18.70;59.00;;;;;;4938362;29;20098;-75
2022/05/04 16:50:31;;;;;;;23.25;3.67;;;18.70;58.50;;;;;;4938642;29;20433;-75
2022/05/04 16:52:56;;;;;;;13.75;2.90;;;18.70;57.70;;;;;;4937683;29;20047;-78
2022/05/04 16:55:22;;;;;;;16.10;3.65;;;18.80;56.80;;;;;;4938933;29;20461;-79
2022/05/04 16:57:48;;;;;;;18.60;4.03;;;18.80;55.90;;;;;;4938517;29;20523;-74
2022/05/04 17:00:14;;;;;;;10.10;2.88;;;18.80;55.00;;;;;;4937971;29;20048;-74
2022/05/04 17:02:39;;;;;;;10.05;2.63;;;18.80;54.50;;;;;;4938399;29;20059;-74
2022/05/04 17:05:06;;;;;;;10.65;2.92;;;18.80;53.80;;;;;;4938851;29;20055;-76
2022/05/04 17:07:32;;;;;;;11.43;2.85;;;18.70;52.40;;;;;;4938484;29;20051;-74
2022/05/04 17:09:58;;;;;;;11.85;3.38;;;18.60;52.40;;;;;;4937025;29;20127;-74
2022/05/04 17:12:26;;;;;;;10.02;2.92;;;18.50;53.10;;;;;;4938639;29;21340;-76
2022/05/04 17:14:52;;;;;;;11.18;2.80;;;18.50;52.70;;;;;;4937658;29;20055;-76
2022/05/04 17:17:18;;;;;;;13.45;2.72;;;18.50;52.90;;;;;;4937002;29;20079;-78
2022/05/04 17:19:44;;;;;;;12.90;2.83;;;18.50;53.80;;;;;;4937043;29;20111;-76
2022/05/04 17:22:10;;;;;;;16.70;3.05;;;18.60;54.00;;;;;;4937961;29;20043;-74
2022/05/04 17:24:36;;;;;;;16.65;3.53;;;18.60;53.60;;;;;;4938230;29;20425;-74
2022/05/04 17:27:04;;;;;;;16.35;3.05;;;18.60;52.90;;;;;;4938215;29;20381;-74
2022/05/04 17:29:30;;;;;;;14.50;2.70;;;18.60;52.80;;;;;;4937634;29;20449;-77
2022/05/04 17:37:25;;;;;;;13.90;3.05;;;18.60;53.40;;;;;;4936869;29;20059;-75
2022/05/04 17:39:54;;;;;;;12.95;2.90;;;18.60;53.50;;;;;;4936823;29;20147;-74
2022/05/04 17:42:20;;;;;;;13.50;3.85;;;18.50;53.50;;;;;;4936854;29;20142;-75
2022/05/04 17:44:49;;;;;;;22.30;3.15;;;18.50;53.80;;;;;;4938003;29;20055;-75
2022/05/04 17:47:15;;;;;;;15.90;2.70;;;18.50;54.10;;;;;;4938053;29;20055;-78
2022/05/04 17:49:44;;;;;;;16.42;3.25;;;18.50;54.20;;;;;;4936751;29;20048;-76
2022/05/04 17:52:10;;;;;;;11.68;2.92;;;18.50;54.40;;;;;;4937533;29;20114;-75
2022/05/04 17:54:35;;;;;;;25.60;5.00;;;18.50;54.60;;;;;;4937024;29;20059;-76
2022/05/04 17:57:01;;;;;;;19.60;3.67;;;18.50;54.80;;;;;;4938021;29;20350;-75
2022/05/04 17:59:27;;;;;;;18.33;3.10;;;18.40;54.80;;;;;;4905251;29;20056;-76
2022/05/04 18:04:37;;;;;;;12.77;2.88;;;18.40;55.10;;;;;;4937621;29;20052;-75
2022/05/04 18:07:03;;;;;;;14.07;3.35;;;18.40;55.30;;;;;;4921851;29;20330;-75
2022/05/04 18:09:29;;;;;;;15.13;3.10;;;18.40;55.40;;;;;;4936677;29;20095;-76
2022/05/04 18:11:55;;;;;;;13.80;3.30;;;18.40;55.40;;;;;;4937053;29;20059;-76
2022/05/04 18:14:23;;;;;;;12.45;2.85;;;18.40;55.50;;;;;;4937664;29;20055;-76
2022/05/04 18:16:49;;;;;;;10.75;2.80;;;18.30;53.70;;;;;;4936656;29;20051;-74
2022/05/04 18:19:15;;;;;;;11.45;2.90;;;18.10;53.00;;;;;;4936642;29;20052;-76
2022/05/04 18:21:43;;;;;;;10.85;2.70;;;18.10;53.60;;;;;;4936894;29;20066;-75
2022/05/04 18:24:09;;;;;;;14.02;2.88;;;18.00;53.80;;;;;;4937338;29;20478;-78
2022/05/04 18:26:35;;;;;;;9.98;3.38;;;18.00;54.40;;;;;;4937760;29;20126;-75
2022/05/04 18:29:01;;;;;;;12.05;3.60;;;18.00;54.80;;;;;;4937468;29;20044;-75
2022/05/04 18:31:27;;;;;;;11.27;3.70;;;18.00;55.40;;;;;;4939798;29;20040;-74
2022/05/04 18:33:52;;;;;;;7.97;2.42;;;18.00;55.80;;;;;;4941141;29;20118;-77
2022/05/04 18:36:30;;;;;;;10.65;2.72;;;18.00;56.00;;;;;;4940369;29;20146;-75
2022/05/04 18:38:59;;;;;;;12.30;3.13;;;18.00;55.80;;;;;;4941127;29;20143;-76
2022/05/04 18:41:25;;;;;;;11.35;2.50;;;18.00;55.80;;;;;;4939589;29;20417;-75
2022/05/04 18:43:52;;;;;;;9.05;2.28;;;18.00;55.70;;;;;;4940478;29;20055;-77
2022/05/04 18:46:18;;;;;;;9.70;2.88;;;18.00;55.80;;;;;;4940364;29;20364;-76